createdAt,value
2022-12-12T00:00:34.885Z,97781.31
2022-12-12T00:03:01.786Z,97778.41
2022-12-12T00:05:28.313Z,97767.66
2022-12-12T00:07:54.958Z,97774.56
2022-12-12T00:10:21.926Z,97776.66
2022-12-12T00:12:48.368Z,97781.13
2022-12-12T00:15:17.740Z,97769.72
2022-12-12T00:17:44.368Z,97774.00
2022-12-12T00:20:11.089Z,97779.91
2022-12-12T00:22:37.740Z,97779.78
2022-12-12T00:25:04.971Z,97784.06
2022-12-12T00:27:33.342Z,97780.94
2022-12-12T00:30:00.049Z,97786.22
2022-12-12T00:32:26.700Z,97779.97
2022-12-12T00:34:53.272Z,97772.75
2022-12-12T00:37:19.811Z,97777.69
2022-12-12T00:39:46.829Z,97778.19
2022-12-12T00:42:13.504Z,97782.16
2022-12-12T00:44:40.366Z,97785.28
2022-12-12T00:47:06.988Z,97776.50
2022-12-12T00:49:33.660Z,97781.91
2022-12-12T00:52:00.146Z,97789.28
2022-12-12T00:54:26.617Z,97789.28
2022-12-12T00:56:53.100Z,97790.88
2022-12-12T00:59:19.803Z,97790.47
2022-12-12T01:01:47.204Z,97789.72
2022-12-12T01:04:14.592Z,97795.41
2022-12-12T01:06:41.308Z,97790.84
2022-12-12T01:09:07.866Z,97800.66
2022-12-12T01:11:34.492Z,97798.66
2022-12-12T01:14:01.272Z,97804.19
2022-12-12T01:16:30.619Z,97800.69
2022-12-12T01:18:59.192Z,97807.34
2022-12-12T01:21:25.845Z,97800.88
2022-12-12T01:23:52.455Z,97804.94
2022-12-12T01:26:23.068Z,97811.00
2022-12-12T01:28:49.711Z,97812.31
2022-12-12T01:31:16.575Z,97815.41
2022-12-12T01:33:45.969Z,97814.69
2022-12-12T01:36:16.427Z,97815.59
2022-12-12T01:38:48.552Z,97809.13
2022-12-12T01:41:17.152Z,97815.66
2022-12-12T01:43:44.396Z,97818.16
2022-12-12T01:46:41.852Z,97817.94
2022-12-12T01:49:27.233Z,97815.72
2022-12-12T01:52:03.072Z,97817.69
2022-12-12T01:54:36.080Z,97823.97
2022-12-12T01:57:09.732Z,97816.75
2022-12-12T01:59:39.072Z,97819.50
2022-12-12T02:02:06.364Z,97819.72
2022-12-12T02:04:33.921Z,97817.69
2022-12-12T02:07:01.454Z,97819.38
2022-12-12T02:09:28.493Z,97814.81
2022-12-12T02:11:57.240Z,97817.03
2022-12-12T02:14:33.631Z,97818.28
2022-12-12T02:17:32.853Z,97816.84
2022-12-12T02:20:20.876Z,97819.91
2022-12-12T02:23:26.642Z,97820.44
2022-12-12T02:26:33.394Z,97810.75
2022-12-12T02:30:01.276Z,97805.16
2022-12-12T02:32:42.788Z,97800.69
2022-12-12T02:35:47.687Z,97809.00
2022-12-12T02:38:51.013Z,97813.22
2022-12-12T02:41:50.302Z,97819.19
2022-12-12T02:44:54.369Z,97814.63
2022-12-12T02:47:32.161Z,97826.97
2022-12-12T02:50:13.895Z,97822.41
2022-12-12T02:52:43.371Z,97826.63
2022-12-12T02:55:10.150Z,97820.94
2022-12-12T02:57:36.799Z,97832.97
2022-12-12T03:00:21.544Z,97824.81
2022-12-12T03:03:46.702Z,97827.34
2022-12-12T03:07:21.952Z,97835.53
2022-12-12T03:10:28.582Z,97839.56
2022-12-12T03:13:32.080Z,97829.59
2022-12-12T03:16:09.827Z,97831.56
2022-12-12T03:19:07.165Z,97831.84
2022-12-12T03:22:01.753Z,97824.81
2022-12-12T03:24:44.875Z,97832.66
2022-12-12T03:27:20.211Z,97831.72
2022-12-12T03:29:55.804Z,97828.91
2022-12-12T03:32:42.867Z,97836.91
2022-12-12T03:35:35.981Z,97835.50
2022-12-12T03:38:14.290Z,97833.78
2022-12-12T03:40:55.666Z,97828.97
2022-12-12T03:43:28.312Z,97826.78
2022-12-12T03:46:19.645Z,97827.94
2022-12-12T03:48:56.675Z,97827.34
2022-12-12T03:51:42.560Z,97830.78
2022-12-12T03:54:24.084Z,97825.09
2022-12-12T03:57:05.652Z,97820.22
2022-12-12T03:59:53.273Z,97820.75
2022-12-12T04:02:36.731Z,97820.81
2022-12-12T04:06:16.086Z,97836.69
2022-12-12T04:09:03.218Z,97837.88
2022-12-12T04:11:59.816Z,97836.84
2022-12-12T04:14:51.921Z,97835.19
2022-12-12T04:17:32.003Z,97841.50
2022-12-12T04:20:42.911Z,97840.56
2022-12-12T04:23:44.664Z,97839.69
2022-12-12T04:26:39.617Z,97842.13
2022-12-12T04:29:18.617Z,97838.59
2022-12-12T04:32:15.784Z,97845.22
2022-12-12T04:35:09.909Z,97852.91
2022-12-12T04:37:54.801Z,97858.41
2022-12-12T04:40:44.028Z,97854.03
2022-12-12T04:43:20.737Z,97856.13
2022-12-12T04:45:54.408Z,97859.84
2022-12-12T04:48:38.118Z,97865.00
2022-12-12T04:51:09.294Z,97861.69
2022-12-12T04:53:46.967Z,97850.50
2022-12-12T04:56:19.683Z,97852.47
2022-12-12T04:58:46.185Z,97861.38
2022-12-12T05:01:53.115Z,97857.59
2022-12-12T05:04:28.998Z,97858.09
2022-12-12T05:07:08.406Z,97869.28
2022-12-12T05:09:36.527Z,97867.72
2022-12-12T05:12:03.242Z,97862.44
2022-12-12T05:14:31.730Z,97863.63
2022-12-12T05:17:06.723Z,97872.56
2022-12-12T05:19:33.285Z,97872.84
2022-12-12T05:21:59.811Z,97870.53
2022-12-12T05:24:31.064Z,97870.16
2022-12-12T05:27:00.772Z,97875.91
2022-12-12T05:29:27.323Z,97879.91
2022-12-12T05:31:53.785Z,97879.16
2022-12-12T05:34:20.276Z,97872.06
2022-12-12T05:36:47.799Z,97874.59
2022-12-12T05:39:14.339Z,97873.47
2022-12-12T05:41:40.859Z,97875.63
2022-12-12T05:44:07.307Z,97875.25
2022-12-12T05:46:33.911Z,97872.53
2022-12-12T05:49:00.420Z,97867.16
2022-12-12T05:51:26.960Z,97876.69
2022-12-12T05:53:53.457Z,97882.03
2022-12-12T05:56:19.919Z,97881.09
2022-12-12T05:58:46.474Z,97874.59
2022-12-12T06:01:12.972Z,97881.03
2022-12-12T06:03:39.463Z,97879.13
2022-12-12T06:06:06.344Z,97878.63
2022-12-12T06:08:32.974Z,97885.25
2022-12-12T06:10:59.635Z,97889.75
2022-12-12T06:13:26.204Z,97884.34
2022-12-12T06:15:52.722Z,97894.63
2022-12-12T06:18:19.573Z,97891.59
2022-12-12T06:20:46.074Z,97897.34
2022-12-12T06:23:12.817Z,97893.81
2022-12-12T06:25:39.526Z,97896.28
2022-12-12T06:28:06.036Z,97894.44
2022-12-12T06:30:32.536Z,97892.00
2022-12-12T06:32:59.041Z,97892.72
2022-12-12T06:35:25.541Z,97896.00
2022-12-12T06:37:52.068Z,97904.69
2022-12-12T06:40:18.813Z,97891.50
2022-12-12T06:42:48.597Z,97897.63
2022-12-12T06:45:16.555Z,97901.19
2022-12-12T06:47:43.242Z,97903.56
2022-12-12T06:50:10.237Z,97908.06
2022-12-12T06:52:36.697Z,97909.41
2022-12-12T06:55:03.689Z,97906.47
2022-12-12T06:57:30.154Z,97909.06
2022-12-12T06:59:56.679Z,97914.25
2022-12-12T07:02:29.258Z,97916.38
2022-12-12T07:04:56.447Z,97924.88
2022-12-12T07:07:22.950Z,97909.75
2022-12-12T07:09:49.651Z,97909.31
2022-12-12T07:12:16.166Z,97914.31
2022-12-12T07:14:42.627Z,97911.56
2022-12-12T07:17:09.090Z,97914.88
2022-12-12T07:19:35.768Z,97920.78
2022-12-12T07:22:09.137Z,97919.91
2022-12-12T07:24:36.582Z,97933.00
2022-12-12T07:27:03.990Z,97926.81
2022-12-12T07:29:30.666Z,97926.97
2022-12-12T07:31:57.336Z,97921.38
2022-12-12T07:34:24.188Z,97926.91
2022-12-12T07:36:56.548Z,97923.31
2022-12-12T07:39:31.093Z,97925.50
2022-12-12T07:41:57.595Z,97920.31
2022-12-12T07:44:24.369Z,97926.84
2022-12-12T07:46:50.904Z,97934.06
2022-12-12T07:49:17.884Z,97939.03
2022-12-12T07:51:48.953Z,97942.38
2022-12-12T07:54:16.045Z,97948.28
2022-12-12T07:56:42.515Z,97950.06
2022-12-12T07:59:09.144Z,97951.78
2022-12-12T08:01:35.689Z,97949.75
2022-12-12T08:04:02.269Z,97947.63
2022-12-12T08:06:28.756Z,97952.50
2022-12-12T08:08:56.388Z,97957.34
2022-12-12T08:11:25.437Z,97961.47
2022-12-12T08:13:52.846Z,97963.22
2022-12-12T08:16:24.722Z,97961.53
2022-12-12T08:18:54.918Z,97959.34
2022-12-12T08:21:25.872Z,97961.47
2022-12-12T08:23:58.067Z,97964.19
2022-12-12T08:26:26.188Z,97964.19
2022-12-12T08:28:54.934Z,97975.31
2022-12-12T08:31:23.115Z,97968.19
2022-12-12T08:36:35.722Z,97977.47
2022-12-12T08:39:10.267Z,97969.50
2022-12-12T08:41:41.292Z,97972.78
2022-12-12T08:44:11.360Z,97976.16
2022-12-12T08:46:39.050Z,97982.16
2022-12-12T08:49:05.980Z,97979.34
2022-12-12T08:51:32.464Z,97976.94
2022-12-12T08:53:58.954Z,97983.75
2022-12-12T08:56:25.523Z,97993.78
2022-12-12T08:58:52.298Z,97986.72
2022-12-12T09:01:23.529Z,97983.22
2022-12-12T09:03:52.606Z,97989.03
2022-12-12T09:06:20.451Z,97991.13
2022-12-12T09:08:47.786Z,97991.31
2022-12-12T09:11:14.999Z,97989.91
2022-12-12T09:13:41.771Z,97997.22
2022-12-12T09:16:10.185Z,97996.16
2022-12-12T09:18:43.247Z,97992.00
2022-12-12T09:21:14.588Z,97992.53
2022-12-12T09:23:41.209Z,97998.97
2022-12-12T09:26:09.562Z,98002.00
2022-12-12T09:28:37.203Z,97997.88
2022-12-12T09:31:06.496Z,98006.00
2022-12-12T09:33:33.242Z,98002.78
2022-12-12T09:36:02.890Z,98007.06
2022-12-12T09:38:29.970Z,98007.03
2022-12-12T09:41:20.842Z,98002.88
2022-12-12T09:43:58.095Z,98002.59
2022-12-12T09:46:42.329Z,98000.16
2022-12-12T09:49:54.116Z,98007.28
2022-12-12T09:52:35.865Z,98012.69
2022-12-12T09:55:41.790Z,98012.69
2022-12-12T09:58:53.858Z,98014.19
2022-12-12T10:01:43.735Z,98010.81
2022-12-12T10:04:24.689Z,98014.28
2022-12-12T10:07:01.304Z,98003.94
2022-12-12T10:09:51.750Z,98014.00
2022-12-12T10:12:21.713Z,98017.84
2022-12-12T10:14:56.877Z,98011.72
2022-12-12T10:17:32.423Z,98019.28
2022-12-12T10:20:17.115Z,98013.59
2022-12-12T10:22:55.722Z,98015.56
2022-12-12T10:25:56.424Z,98016.63
2022-12-12T10:28:30.696Z,98010.56
2022-12-12T10:31:30.239Z,98015.44
2022-12-12T10:34:21.447Z,98018.22
2022-12-12T10:37:48.186Z,98013.41
2022-12-12T10:40:49.986Z,98019.75
2022-12-12T10:43:32.301Z,98012.69
2022-12-12T10:46:22.401Z,98002.25
2022-12-12T10:48:49.876Z,98005.88
2022-12-12T10:51:20.877Z,98008.72
2022-12-12T10:53:47.323Z,98001.22
2022-12-12T10:56:29.522Z,98005.75
2022-12-12T10:59:00.093Z,97996.56
2022-12-12T11:02:07.787Z,97990.66
2022-12-12T11:04:17.791Z,97993.53
2022-12-12T11:06:52.252Z,97984.69
2022-12-12T11:09:23.883Z,97989.56
2022-12-12T11:12:09.615Z,97986.28
2022-12-12T11:14:48.200Z,97986.78
2022-12-12T11:17:33.828Z,97988.69
2022-12-12T11:20:07.354Z,97988.22
2022-12-12T11:22:34.558Z,97996.31
2022-12-12T11:25:01.158Z,97992.13
2022-12-12T11:27:39.668Z,97988.94
2022-12-12T11:30:21.099Z,97986.97
2022-12-12T11:32:51.992Z,97987.38
2022-12-12T11:35:47.043Z,97989.06
2022-12-12T11:38:22.795Z,97980.59
2022-12-12T11:41:06.356Z,97985.63
2022-12-12T11:43:38.262Z,97980.13
2022-12-12T11:46:16.636Z,97980.56
2022-12-12T11:48:52.059Z,97967.16
2022-12-12T11:51:44.378Z,97969.31
2022-12-12T11:54:26.740Z,97965.88
2022-12-12T11:57:03.197Z,97966.25
2022-12-12T12:00:15.372Z,97962.06
2022-12-12T12:03:21.054Z,97959.69
2022-12-12T12:06:33.935Z,97956.06
2022-12-12T12:09:38.388Z,97958.59
2022-12-12T12:12:17.440Z,97953.97
2022-12-12T12:15:37.792Z,97957.00
2022-12-12T12:18:39.336Z,97957.81
2022-12-12T12:21:13.705Z,97953.13
2022-12-12T12:24:32.132Z,97958.06
2022-12-12T12:27:18.465Z,97964.50
2022-12-12T12:29:53.736Z,97965.28
2022-12-12T12:32:44.503Z,97957.06
2022-12-12T12:35:47.644Z,97972.66
2022-12-12T12:39:03.415Z,97956.25
2022-12-12T12:42:14.992Z,97972.47
2022-12-12T12:45:02.966Z,97970.72
2022-12-12T12:47:49.132Z,97965.75
2022-12-12T12:50:31.414Z,97956.25
2022-12-12T12:53:27.765Z,97964.84
2022-12-12T12:56:01.251Z,97965.34
2022-12-12T12:58:39.281Z,97966.91
2022-12-12T13:01:13.388Z,97961.28
2022-12-12T13:04:11.737Z,97959.75
2022-12-12T13:06:53.684Z,97952.88
2022-12-12T13:09:44.114Z,97952.81
2022-12-12T13:12:33.249Z,97943.75
2022-12-12T13:15:26.621Z,97949.59
2022-12-12T13:18:10.599Z,97947.63
2022-12-12T13:20:42.705Z,97935.38
2022-12-12T13:23:52.271Z,97935.69
2022-12-12T13:26:53.735Z,97939.66
2022-12-12T13:29:34.942Z,97936.41
2022-12-12T13:32:10.429Z,97940.81
2022-12-12T13:34:50.245Z,97936.91
2022-12-12T13:37:21.638Z,97938.31
2022-12-12T13:40:06.936Z,97930.72
2022-12-12T13:43:02.708Z,97930.22
2022-12-12T13:45:43.954Z,97941.63
2022-12-12T13:48:46.013Z,97939.53
2022-12-12T13:51:28.383Z,97936.59
2022-12-12T13:54:11.987Z,97936.78
2022-12-12T13:57:11.504Z,97946.44
2022-12-12T13:59:54.935Z,97955.72
2022-12-12T14:02:56.618Z,97957.03
2022-12-12T14:05:52.394Z,97955.72
2022-12-12T14:08:26.881Z,97953.97
2022-12-12T14:11:02.110Z,97956.00
2022-12-12T14:13:39.914Z,97954.16
2022-12-12T14:16:16.685Z,97946.38
2022-12-12T14:18:52.143Z,97945.19
2022-12-12T14:21:40.040Z,97939.78
2022-12-12T14:24:34.021Z,97932.75
2022-12-12T14:27:02.421Z,97935.00
2022-12-12T14:29:32.286Z,97943.13
2022-12-12T14:32:10.841Z,97940.81
2022-12-12T14:35:14.656Z,97948.66
2022-12-12T14:38:19.388Z,97947.78
2022-12-12T14:40:55.705Z,97951.53
2022-12-12T14:43:28.120Z,97949.63
2022-12-12T14:45:58.752Z,97957.31
2022-12-12T14:48:36.252Z,97952.81
2022-12-12T14:51:25.884Z,97943.88
2022-12-12T14:53:57.296Z,97946.06
2022-12-12T14:56:40.738Z,97950.25
2022-12-12T14:59:19.631Z,97947.75
2022-12-12T15:01:50.254Z,97950.97
2022-12-12T15:04:37.455Z,97951.78
2022-12-12T15:07:07.322Z,97950.25
2022-12-12T15:09:40.520Z,97949.56
2022-12-12T15:12:10.017Z,97957.00
2022-12-12T15:14:57.212Z,97953.63
2022-12-12T15:17:29.688Z,97956.97
2022-12-12T15:20:09.433Z,97951.97
2022-12-12T15:22:48.556Z,97956.91
2022-12-12T15:25:20.250Z,97961.41
2022-12-12T15:27:55.642Z,97951.28
2022-12-12T15:30:42.977Z,97960.88
2022-12-12T15:33:19.238Z,97955.16
2022-12-12T15:36:05.211Z,97952.75
2022-12-12T15:38:34.136Z,97956.78
2022-12-12T15:41:11.234Z,97960.94
2022-12-12T15:43:40.326Z,97968.72
2022-12-12T15:46:14.938Z,97973.03
2022-12-12T15:48:43.844Z,97975.31
2022-12-12T15:51:12.817Z,97972.00
2022-12-12T15:53:51.188Z,97978.91
2022-12-12T15:56:20.285Z,97982.16
2022-12-12T15:58:51.867Z,97978.38
2022-12-12T16:01:25.312Z,97977.59
2022-12-12T16:04:06.661Z,97981.78
2022-12-12T16:06:46.250Z,97980.72
2022-12-12T16:09:26.769Z,97992.47
2022-12-12T16:11:55.133Z,97990.66
2022-12-12T16:14:41.704Z,97991.84
2022-12-12T16:17:22.159Z,97997.00
2022-12-12T16:19:55.781Z,97998.97
2022-12-12T16:22:31.849Z,98002.59
2022-12-12T16:25:28.026Z,98000.16
2022-12-12T16:28:24.689Z,98008.81
2022-12-12T16:31:05.974Z,98010.00
2022-12-12T16:33:37.933Z,98015.53
2022-12-12T16:36:14.317Z,98008.56
2022-12-12T16:38:42.052Z,98017.31
2022-12-12T16:41:16.974Z,98005.50
2022-12-12T16:43:44.920Z,98003.06
2022-12-12T16:46:24.642Z,98007.47
2022-12-12T16:48:52.697Z,98003.00
2022-12-12T16:51:30.704Z,97998.69
2022-12-12T16:53:57.259Z,97999.56
2022-12-12T16:56:24.692Z,98005.09
2022-12-12T16:58:53.225Z,98014.59
2022-12-12T17:01:20.826Z,98003.41
2022-12-12T17:03:47.436Z,98012.75
2022-12-12T17:06:13.937Z,98016.88
2022-12-12T17:08:40.424Z,98019.97
2022-12-12T17:11:10.073Z,98022.56
2022-12-12T17:13:44.069Z,98024.06
2022-12-12T17:16:10.554Z,98023.34
2022-12-12T17:18:37.018Z,98022.75
2022-12-12T17:21:03.773Z,98013.97
2022-12-12T17:23:30.476Z,98011.88
2022-12-12T17:26:03.504Z,98011.72
2022-12-12T17:28:33.208Z,98016.81
2022-12-12T17:31:00.888Z,98013.53
2022-12-12T17:33:27.747Z,98014.44
2022-12-12T17:36:03.856Z,98017.66
2022-12-12T17:38:30.685Z,98023.09
2022-12-12T17:40:58.272Z,98022.81
2022-12-12T17:43:25.796Z,98015.13
2022-12-12T17:46:04.358Z,98019.66
2022-12-12T17:48:33.828Z,98018.84
2022-12-12T17:51:04.685Z,98020.63
2022-12-12T17:53:37.953Z,98029.38
2022-12-12T17:56:22.402Z,98021.59
2022-12-12T17:58:51.006Z,98016.22
2022-12-12T18:01:25.051Z,98015.38
2022-12-12T18:03:52.664Z,98019.06
2022-12-12T18:06:21.245Z,98011.56
2022-12-12T18:08:48.348Z,98015.13
2022-12-12T18:11:21.441Z,98002.94
2022-12-12T18:13:53.814Z,98009.03
2022-12-12T18:16:23.482Z,98012.28
2022-12-12T18:18:54.266Z,98015.06
2022-12-12T18:21:59.317Z,98008.47
2022-12-12T18:24:13.334Z,98013.63
2022-12-12T18:26:40.262Z,98014.16
2022-12-12T18:29:08.830Z,98017.06
2022-12-12T18:31:35.922Z,98016.09
2022-12-12T18:34:02.766Z,98011.47
2022-12-12T18:36:31.385Z,98016.41
2022-12-12T18:39:02.302Z,98015.50
2022-12-12T18:41:31.324Z,98021.06
2022-12-12T18:43:57.956Z,98017.69
2022-12-12T18:46:29.345Z,98015.84
2022-12-12T18:48:55.854Z,98015.19
2022-12-12T18:51:25.947Z,98014.81
2022-12-12T18:53:54.914Z,98014.19
2022-12-12T18:56:28.231Z,98011.69
2022-12-12T18:59:00.327Z,98010.88
2022-12-12T19:01:34.241Z,98016.03
2022-12-12T19:04:07.472Z,98013.19
2022-12-12T19:06:38.224Z,98011.34
2022-12-12T19:09:14.398Z,98003.88
2022-12-12T19:11:41.295Z,98006.41
2022-12-12T19:14:09.559Z,98009.00
2022-12-12T19:16:36.585Z,98014.34
2022-12-12T19:19:05.207Z,98013.06
2022-12-12T19:21:33.698Z,98008.97
2022-12-12T19:24:01.926Z,98015.94
2022-12-12T19:26:30.174Z,98008.53
2022-12-12T19:29:11.245Z,98006.09
2022-12-12T19:31:37.802Z,98007.63
2022-12-12T19:34:07.500Z,98006.78
2022-12-12T19:36:35.752Z,98012.84
2022-12-12T19:39:05.598Z,98005.94
2022-12-12T19:41:32.940Z,98006.09
2022-12-12T19:44:01.897Z,98008.72
2022-12-12T19:46:31.495Z,98009.34
2022-12-12T19:49:02.119Z,98010.06
2022-12-12T19:51:32.697Z,98020.19
2022-12-12T19:54:00.347Z,98020.19
2022-12-12T19:56:31.553Z,98018.78
2022-12-12T19:59:02.019Z,98018.28
2022-12-12T20:01:35.330Z,98018.59
2022-12-12T20:04:21.696Z,98018.03
2022-12-12T20:06:49.998Z,98015.69
2022-12-12T20:09:22.805Z,98020.88
2022-12-12T20:11:50.582Z,98020.75
2022-12-12T20:14:25.713Z,98021.75
2022-12-12T20:16:54.116Z,98040.81
2022-12-12T20:19:23.209Z,98035.59
2022-12-12T20:22:01.795Z,98039.63
2022-12-12T20:24:29.506Z,98040.47
2022-12-12T20:26:56.928Z,98035.66
2022-12-12T20:29:23.677Z,98040.72
2022-12-12T20:31:52.443Z,98040.50
2022-12-12T20:34:24.665Z,98034.25
2022-12-12T20:36:54.968Z,98036.00
2022-12-12T20:39:22.246Z,98038.75
2022-12-12T20:41:50.450Z,98035.44
2022-12-12T20:44:18.254Z,98038.69
2022-12-12T20:46:46.563Z,98035.09
2022-12-12T20:49:18.268Z,98041.31
2022-12-12T20:52:01.183Z,98041.44
2022-12-12T20:54:29.507Z,98034.19
2022-12-12T20:56:58.541Z,98036.88
2022-12-12T20:59:26.380Z,98036.28
2022-12-12T21:01:53.127Z,98039.78
2022-12-12T21:04:20.615Z,98034.78
2022-12-12T21:06:48.601Z,98033.06
2022-12-12T21:09:22.610Z,98030.31
2022-12-12T21:11:50.175Z,98034.63
2022-12-12T21:14:16.846Z,98027.84
2022-12-12T21:16:43.532Z,98023.59
2022-12-12T21:19:14.074Z,98025.28
2022-12-12T21:21:43.200Z,98027.81
2022-12-12T21:24:16.136Z,98026.78
2022-12-12T21:26:43.834Z,98020.56
2022-12-12T21:29:10.804Z,98028.19
2022-12-12T21:31:48.251Z,98025.78
2022-12-12T21:34:17.701Z,98024.94
2022-12-12T21:36:44.504Z,98024.03
2022-12-12T21:39:12.736Z,98019.75
2022-12-12T21:41:41.809Z,98024.09
2022-12-12T21:44:09.096Z,98026.09
2022-12-12T21:46:36.242Z,98026.16
2022-12-12T21:49:21.468Z,98034.00
2022-12-12T21:51:48.005Z,98031.72
2022-12-12T21:54:18.388Z,98026.41
2022-12-12T21:56:44.984Z,98030.47
2022-12-12T21:59:13.333Z,98035.44
2022-12-12T22:01:42.110Z,98026.19
2022-12-12T22:04:11.950Z,98018.47
2022-12-12T22:06:38.838Z,98018.72
2022-12-12T22:09:09.797Z,98020.81
2022-12-12T22:11:42.248Z,98023.34
2022-12-12T22:14:18.627Z,98026.56
2022-12-12T22:16:45.461Z,98026.56
2022-12-12T22:19:14.378Z,98035.34
2022-12-12T22:21:43.690Z,98038.94
2022-12-12T22:24:10.277Z,98033.84
2022-12-12T22:26:40.958Z,98030.38
2022-12-12T22:29:12.076Z,98034.50
2022-12-12T22:31:40.328Z,98032.56
2022-12-12T22:34:12.401Z,98030.69
2022-12-12T22:36:40.325Z,98024.75
2022-12-12T22:39:13.830Z,98030.91
2022-12-12T22:41:40.312Z,98033.47
2022-12-12T22:44:07.712Z,98031.88
2022-12-12T22:46:36.947Z,98022.56
2022-12-12T22:49:05.786Z,98031.09
2022-12-12T22:51:33.936Z,98020.00
2022-12-12T22:54:05.184Z,98015.78
2022-12-12T22:56:35.818Z,98012.25
2022-12-12T22:59:03.716Z,98006.13
2022-12-12T23:01:31.215Z,98018.03
2022-12-12T23:03:58.870Z,98016.50
2022-12-12T23:06:30.637Z,98019.16
2022-12-12T23:09:04.562Z,98014.84
2022-12-12T23:11:32.456Z,98021.97
2022-12-12T23:14:06.665Z,98023.84
2022-12-12T23:16:35.595Z,98024.81
2022-12-12T23:19:04.951Z,98016.34
2022-12-12T23:21:32.077Z,98018.13
2022-12-12T23:23:58.620Z,98015.50
2022-12-12T23:26:29.913Z,98016.34
2022-12-12T23:28:58.713Z,98012.03
2022-12-12T23:31:32.990Z,98015.50
2022-12-12T23:34:04.008Z,98012.75
2022-12-12T23:36:31.622Z,98004.06
2022-12-12T23:39:01.830Z,98002.59
2022-12-12T23:41:29.254Z,97999.31
2022-12-12T23:43:56.685Z,98006.19
2022-12-12T23:46:30.963Z,98004.50
2022-12-12T23:49:08.915Z,98005.25
2022-12-12T23:51:43.103Z,97995.69
2022-12-12T23:54:15.918Z,97987.22
2022-12-12T23:56:43.209Z,97991.44
2022-12-12T23:59:14.116Z,97991.44
